Time;durP1;ratioP1;P1;durP2;ratioP2;P2;SDS_P1;SDS_P2;PMS_P1;PMS_P2;Temp;Humidity;BMP_temperature;BMP_pressure;BME280_temperature;BME280_humidity;BME280_pressure;Samples;Min_cycle;Max_cycle;Signal;HPM_P1;HPM_P2
2023/10/13 00:00:30;;;;;;;55.78;29.08;;;13.70;99.90;;;;;;5053268;28;20418;-62
2023/10/13 00:03:02;;;;;;;73.50;35.50;;;13.70;99.90;;;;;;5052511;28;20049;-64
2023/10/13 00:05:31;;;;;;;77.88;35.03;;;13.80;99.90;;;;;;5066700;28;20041;-64
2023/10/13 00:08:01;;;;;;;73.60;32.97;;;13.80;99.90;;;;;;5061041;28;20505;-64
2023/10/13 00:10:31;;;;;;;51.80;28.80;;;13.90;99.90;;;;;;5051356;28;20055;-62
2023/10/13 00:16:21;;;;;;;70.93;35.45;;;13.80;99.90;;;;;;5084855;28;20060;-62
2023/10/13 00:18:43;;;;;;;54.38;30.98;;;13.80;99.90;;;;;;5047513;28;20041;-62
2023/10/13 00:21:13;;;;;;;61.65;31.75;;;14.00;99.90;;;;;;5068526;28;20094;-62
2023/10/13 00:23:53;;;;;;;80.22;37.88;;;13.90;99.90;;;;;;5052008;28;20041;-64
2023/10/13 00:26:27;;;;;;;72.32;37.80;;;14.00;99.90;;;;;;5051897;28;20041;-62
2023/10/13 00:31:36;;;;;;;90.30;40.88;;;14.30;99.90;;;;;;5084722;28;20707;-62
2023/10/13 00:34:12;;;;;;;111.90;48.30;;;14.30;99.90;;;;;;5052090;28;20041;-62
2023/10/13 00:39:23;;;;;;;;;;;14.40;99.90;;;;;;5051868;28;20056;-64
2023/10/13 00:41:52;;;;;;;115.57;48.03;;;14.40;99.90;;;;;;5034739;28;19916;-64
2023/10/13 00:44:28;;;;;;;76.38;38.88;;;14.30;99.90;;;;;;5050446;28;20037;-64
2023/10/13 00:46:56;;;;;;;75.90;38.20;;;14.50;99.90;;;;;;5034742;28;20045;-62
2023/10/13 00:49:23;;;;;;;111.90;51.50;;;14.50;99.90;;;;;;5052711;28;20055;-64
2023/10/13 00:51:50;;;;;;;113.10;45.28;;;14.60;99.90;;;;;;5051366;28;20375;-64
2023/10/13 00:54:18;;;;;;;76.75;38.75;;;14.60;99.90;;;;;;5052337;28;20115;-64
2023/10/13 00:56:57;;;;;;;99.97;44.78;;;14.90;99.90;;;;;;5050684;28;20044;-62
2023/10/13 00:59:25;;;;;;;66.43;34.10;;;14.90;99.90;;;;;;5058955;28;20134;-62
2023/10/13 01:01:54;;;;;;;66.70;34.50;;;15.00;99.90;;;;;;5070916;28;20123;-62
2023/10/13 01:04:20;;;;;;;81.13;38.58;;;14.90;99.90;;;;;;5066141;28;20047;-63
2023/10/13 01:06:46;;;;;;;75.68;36.63;;;15.10;99.90;;;;;;5060416;28;20485;-62
2023/10/13 01:11:42;;;;;;;62.30;33.95;;;15.20;99.90;;;;;;5069686;28;20370;-62
2023/10/13 01:14:12;;;;;;;61.38;31.95;;;15.20;99.90;;;;;;5068432;28;20090;-62
2023/10/13 01:16:43;;;;;;;54.63;28.92;;;15.30;99.90;;;;;;5050813;28;20386;-62
2023/10/13 01:19:12;;;;;;;58.17;29.55;;;15.20;99.90;;;;;;5050084;28;20513;-62
2023/10/13 01:21:40;;;;;;;52.45;30.30;;;15.30;99.90;;;;;;5050096;28;20041;-63
2023/10/13 01:24:07;;;;;;;51.08;29.73;;;15.30;99.90;;;;;;5050961;28;20060;-62
2023/10/13 01:26:38;;;;;;;45.13;28.35;;;15.40;99.90;;;;;;5050071;28;20045;-63
2023/10/13 01:29:14;;;;;;;53.22;28.45;;;15.40;99.90;;;;;;5050639;28;20055;-62
2023/10/13 01:31:50;;;;;;;52.03;29.33;;;15.50;99.90;;;;;;5050492;28;20111;-62
2023/10/13 01:34:21;;;;;;;49.00;27.95;;;15.50;99.90;;;;;;5049788;28;20033;-63
2023/10/13 01:36:52;;;;;;;42.08;23.67;;;15.50;99.90;;;;;;5051021;28;20900;-63
2023/10/13 01:39:20;;;;;;;36.72;23.33;;;15.40;99.90;;;;;;5034194;28;20052;-62
2023/10/13 01:41:45;;;;;;;37.53;23.25;;;15.60;99.90;;;;;;5050697;28;20049;-62
2023/10/13 01:44:17;;;;;;;32.00;21.00;;;15.60;99.90;;;;;;5052509;28;20546;-63
2023/10/13 01:46:42;;;;;;;33.58;20.75;;;15.60;99.90;;;;;;5069949;28;20397;-62
2023/10/13 01:49:08;;;;;;;30.40;18.02;;;15.70;99.90;;;;;;5087034;28;20489;-62
2023/10/13 01:51:34;;;;;;;37.20;19.08;;;15.60;99.90;;;;;;5103878;28;20063;-63
2023/10/13 01:54:02;;;;;;;30.40;17.25;;;15.60;99.90;;;;;;5103703;28;20040;-62
2023/10/13 01:56:30;;;;;;;32.40;17.13;;;15.80;99.90;;;;;;5062399;28;20523;-63
2023/10/13 01:58:57;;;;;;;27.90;15.65;;;15.80;99.90;;;;;;5054074;28;20048;-62
2023/10/13 02:01:29;;;;;;;21.25;13.98;;;15.70;99.90;;;;;;5070890;28;20043;-62
2023/10/13 02:04:04;;;;;;;22.10;12.93;;;15.90;99.90;;;;;;5053727;28;20045;-62
2023/10/13 02:06:36;;;;;;;28.40;15.50;;;15.90;99.90;;;;;;5050139;28;20041;-63
2023/10/13 02:09:12;;;;;;;27.67;14.48;;;15.70;99.90;;;;;;5049675;28;20040;-62
2023/10/13 02:11:48;;;;;;;19.67;13.38;;;15.80;99.90;;;;;;5050098;28;20036;-62
2023/10/13 02:14:18;;;;;;;20.85;11.48;;;15.80;99.90;;;;;;5033090;28;20114;-63
2023/10/13 02:16:46;;;;;;;23.30;12.48;;;15.70;99.90;;;;;;5033924;28;20051;-62
2023/10/13 02:19:17;;;;;;;24.08;12.88;;;15.80;99.90;;;;;;5050183;28;20498;-62
2023/10/13 02:21:44;;;;;;;17.15;11.07;;;15.80;99.90;;;;;;5051358;28;20079;-62
2023/10/13 02:24:17;;;;;;;18.00;11.45;;;15.80;99.90;;;;;;5070302;28;20045;-62
2023/10/13 02:26:44;;;;;;;22.08;12.80;;;16.00;99.90;;;;;;5049979;28;20045;-62
2023/10/13 02:29:13;;;;;;;19.65;12.35;;;15.80;99.90;;;;;;5032725;28;20056;-62
2023/10/13 02:31:42;;;;;;;26.58;13.77;;;15.90;99.90;;;;;;5051371;28;20037;-63
2023/10/13 02:34:08;;;;;;;20.13;13.38;;;16.00;99.90;;;;;;5036552;28;20059;-63
2023/10/13 02:36:37;;;;;;;24.10;14.00;;;16.00;99.90;;;;;;5071923;28;20550;-63
2023/10/13 02:39:07;;;;;;;26.90;15.63;;;15.90;99.90;;;;;;5073447;28;20127;-63
2023/10/13 02:41:37;;;;;;;28.77;15.50;;;16.00;99.90;;;;;;5073698;28;20044;-62
2023/10/13 02:44:06;;;;;;;29.38;17.20;;;16.10;99.90;;;;;;5073046;28;20076;-62
2023/10/13 02:46:35;;;;;;;27.65;16.35;;;15.90;99.90;;;;;;5056628;28;20055;-62
2023/10/13 02:49:09;;;;;;;24.35;15.35;;;16.10;99.90;;;;;;5073617;28;20044;-62
2023/10/13 02:51:36;;;;;;;28.52;15.82;;;15.90;99.90;;;;;;5073591;28;20053;-62
2023/10/13 02:54:17;;;;;;;33.67;17.65;;;15.90;99.90;;;;;;5073750;28;20036;-62
2023/10/13 02:56:49;;;;;;;29.45;17.48;;;16.10;99.90;;;;;;5036704;28;20041;-62
2023/10/13 02:59:15;;;;;;;27.95;16.45;;;16.00;99.90;;;;;;5053204;28;20037;-62
2023/10/13 03:01:41;;;;;;;30.92;18.60;;;16.00;99.90;;;;;;5053756;28;20037;-62
2023/10/13 03:04:08;;;;;;;34.60;20.52;;;16.00;99.90;;;;;;5052479;28;20500;-63
2023/10/13 03:06:35;;;;;;;34.28;21.90;;;16.10;99.90;;;;;;5068663;28;20056;-63
2023/10/13 03:09:17;;;;;;;47.40;24.98;;;16.00;99.90;;;;;;5068417;28;20079;-62
2023/10/13 03:11:49;;;;;;;40.35;22.27;;;16.10;99.90;;;;;;5078928;28;20037;-62
2023/10/13 03:14:24;;;;;;;37.22;23.40;;;16.10;99.90;;;;;;5086492;28;20028;-63
2023/10/13 03:16:52;;;;;;;38.00;22.77;;;16.10;99.90;;;;;;5067791;28;20052;-63
2023/10/13 03:19:19;;;;;;;37.75;23.08;;;16.20;99.90;;;;;;5073344;28;20533;-62
2023/10/13 03:21:54;;;;;;;41.78;24.85;;;16.00;99.90;;;;;;5074150;28;20040;-62
2023/10/13 03:24:33;;;;;;;35.45;22.50;;;16.20;99.90;;;;;;5074039;28;20095;-63
2023/10/13 03:27:08;;;;;;;40.95;23.27;;;16.10;99.90;;;;;;5073135;28;20036;-62
2023/10/13 03:29:48;;;;;;;38.15;22.90;;;16.10;99.90;;;;;;5074002;28;20051;-62
2023/10/13 03:32:17;;;;;;;40.17;25.15;;;16.20;99.90;;;;;;5071999;28;20041;-62
2023/10/13 03:34:52;;;;;;;38.33;23.08;;;16.10;99.90;;;;;;5072587;28;20469;-62
2023/10/13 03:37:40;;;;;;;39.85;24.65;;;16.20;99.90;;;;;;5072768;28;20044;-62
2023/10/13 03:40:07;;;;;;;36.85;22.42;;;16.20;99.90;;;;;;5071497;28;20044;-62
2023/10/13 03:42:33;;;;;;;36.58;23.08;;;16.10;99.90;;;;;;5072859;28;20044;-62
2023/10/13 03:44:58;;;;;;;43.03;24.95;;;16.00;99.90;;;;;;5071690;28;20504;-62
2023/10/13 03:47:27;;;;;;;38.20;23.30;;;16.20;99.90;;;;;;5072860;28;20052;-62
2023/10/13 03:50:14;;;;;;;40.20;23.88;;;16.20;99.90;;;;;;5061371;28;20101;-62
2023/10/13 03:52:39;;;;;;;36.15;22.42;;;16.20;99.90;;;;;;5072533;28;20040;-62
2023/10/13 03:55:07;;;;;;;30.92;20.00;;;16.00;99.90;;;;;;5073659;28;20041;-62
2023/10/13 03:57:38;;;;;;;34.15;22.23;;;16.00;99.90;;;;;;5072178;28;20052;-62
2023/10/13 04:00:21;;;;;;;30.05;19.13;;;16.00;99.90;;;;;;5062424;28;20052;-61
2023/10/13 04:02:52;;;;;;;30.80;19.35;;;16.20;99.90;;;;;;5051968;28;20059;-62
2023/10/13 04:05:39;;;;;;;27.25;17.85;;;16.00;99.90;;;;;;5051986;28;20037;-61
2023/10/13 04:32:15;;;;;;;26.20;15.68;;;16.10;99.90;;;;;;5071688;28;20052;-62
2023/10/13 04:34:46;;;;;;;20.17;13.38;;;16.10;99.90;;;;;;5072846;28;20048;-62
2023/10/13 04:37:28;;;;;;;20.17;13.18;;;16.20;99.90;;;;;;5072218;28;20070;-62
2023/10/13 04:40:08;;;;;;;20.40;12.68;;;16.10;99.90;;;;;;5071348;28;20052;-62
2023/10/13 04:42:49;;;;;;;30.90;17.30;;;16.10;99.90;;;;;;5070648;28;20451;-62
2023/10/13 04:48:27;;;;;;;28.05;16.40;;;16.00;99.90;;;;;;5068596;28;20052;-64
2023/10/13 04:51:34;;;;;;;;;;;16.30;99.90;;;;;;5061008;28;20053;-65
2023/10/13 04:57:23;;;;;;;24.90;15.85;;;16.20;99.90;;;;;;5031432;28;20404;-64
2023/10/13 04:59:36;;;;;;;27.20;15.00;;;16.20;99.90;;;;;;5027419;28;20055;-65
2023/10/13 06:29:52;;;;;;;9.03;5.40;;;15.90;99.90;;;;;;5051212;28;20063;-65
2023/10/13 06:32:28;;;;;;;9.68;5.40;;;15.70;99.90;;;;;;5053781;28;20052;-64
2023/10/13 06:34:57;;;;;;;10.25;5.03;;;15.90;99.90;;;;;;5055492;28;20047;-64
2023/10/13 06:37:30;;;;;;;7.43;4.38;;;15.90;99.90;;;;;;5050591;28;20045;-64
2023/10/13 06:40:06;;;;;;;9.57;5.22;;;16.00;99.90;;;;;;5053892;28;20047;-65
2023/10/13 06:42:34;;;;;;;11.93;6.05;;;15.90;99.90;;;;;;5052831;28;20086;-65
2023/10/13 06:45:11;;;;;;;9.05;4.57;;;15.90;99.90;;;;;;5047339;28;20077;-65
2023/10/13 06:47:43;;;;;;;8.43;4.75;;;16.00;99.90;;;;;;5064337;28;20041;-64
2023/10/13 06:50:15;;;;;;;8.77;4.55;;;16.20;99.90;;;;;;5031732;28;20045;-66
2023/10/13 06:52:46;;;;;;;6.90;3.88;;;16.20;99.90;;;;;;5031077;28;20057;-64
2023/10/13 06:55:17;;;;;;;8.27;4.43;;;16.20;99.90;;;;;;5069725;28;20555;-65
2023/10/13 06:57:46;;;;;;;7.57;4.30;;;16.10;99.90;;;;;;5071292;28;20397;-66
2023/10/13 07:03:05;;;;;;;10.35;4.78;;;16.10;99.90;;;;;;5067908;28;20437;-65
2023/10/13 07:05:38;;;;;;;9.45;5.10;;;16.30;99.90;;;;;;5071605;28;20048;-65
2023/10/13 07:08:06;;;;;;;8.98;4.70;;;16.10;99.90;;;;;;5053524;28;20093;-66
2023/10/13 07:10:44;;;;;;;14.90;5.25;;;16.10;99.90;;;;;;5065010;28;20040;-64
2023/10/13 07:13:13;;;;;;;10.85;5.35;;;16.20;99.90;;;;;;5047155;28;20456;-64
2023/10/13 07:15:44;;;;;;;13.55;5.45;;;16.30;99.90;;;;;;5053593;28;20040;-64
2023/10/13 07:18:13;;;;;;;14.00;5.40;;;16.30;99.90;;;;;;5048939;28;20037;-65
2023/10/13 07:20:43;;;;;;;11.68;5.28;;;16.10;99.90;;;;;;5032063;28;20036;-65
2023/10/13 07:23:17;;;;;;;10.27;4.82;;;16.20;99.90;;;;;;5050040;28;20498;-64
2023/10/13 07:25:54;;;;;;;15.52;5.38;;;16.30;99.90;;;;;;5032382;28;20044;-64
2023/10/13 07:31:51;;;;;;;13.10;5.82;;;16.20;99.90;;;;;;5055136;28;20408;-64
2023/10/13 07:37:16;;;;;;;14.15;6.10;;;16.00;99.90;;;;;;5049107;28;20136;-64
2023/10/13 07:39:44;;;;;;;16.92;5.95;;;16.00;99.90;;;;;;5060279;28;20072;-64
2023/10/13 07:42:19;;;;;;;14.52;5.90;;;16.00;99.90;;;;;;5050980;28;20124;-64
2023/10/13 07:44:48;;;;;;;;;;;16.20;99.90;;;;;;5067655;28;20087;-64
2023/10/13 07:47:14;;;;;;;16.02;6.32;;;16.00;99.90;;;;;;5053624;28;19921;-64
2023/10/13 07:49:40;;;;;;;15.70;6.20;;;15.90;99.90;;;;;;5049518;28;20072;-64
2023/10/13 07:52:23;;;;;;;16.75;7.15;;;16.10;99.90;;;;;;5079158;28;20068;-65
2023/10/13 07:55:13;;;;;;;13.75;6.22;;;15.90;99.90;;;;;;5013563;28;20832;-64
2023/10/13 07:57:53;;;;;;;16.23;6.53;;;15.90;99.90;;;;;;5031457;28;20036;-64
2023/10/13 08:00:46;;;;;;;15.82;6.47;;;16.00;99.90;;;;;;5053578;28;20118;-64
2023/10/13 08:08:34;;;;;;;15.82;6.60;;;16.10;99.90;;;;;;5064342;28;20052;-64
2023/10/13 08:11:30;;;;;;;17.63;7.50;;;15.90;99.90;;;;;;5060921;28;20083;-64
2023/10/13 08:13:59;;;;;;;15.93;7.10;;;15.90;99.90;;;;;;5062406;28;20124;-64
2023/10/13 08:16:45;;;;;;;22.05;6.95;;;15.90;99.90;;;;;;5081629;28;20045;-63
2023/10/13 08:19:15;;;;;;;22.08;6.93;;;16.10;99.90;;;;;;5068290;28;20041;-64
2023/10/13 08:21:49;;;;;;;17.00;5.95;;;16.00;99.90;;;;;;5052242;28;20041;-64
2023/10/13 08:24:15;;;;;;;15.50;5.95;;;16.00;99.90;;;;;;5035103;28;20136;-63
2023/10/13 08:32:14;;;;;;;12.77;5.82;;;16.20;99.90;;;;;;5030747;28;20051;-63
2023/10/13 08:48:08;;;;;;;12.95;5.85;;;16.30;99.90;;;;;;5084624;28;20061;-63
2023/10/13 08:56:14;;;;;;;17.52;5.63;;;16.30;99.90;;;;;;5084152;28;20048;-62
2023/10/13 09:04:22;;;;;;;11.13;5.85;;;16.50;99.90;;;;;;5083932;28;20045;-62
2023/10/13 09:09:34;;;;;;;13.77;6.63;;;16.60;99.90;;;;;;5083256;28;20132;-61
2023/10/13 09:17:48;;;;;;;13.18;6.95;;;16.70;99.90;;;;;;5083731;28;20049;-62
2023/10/13 09:20:31;;;;;;;12.20;7.50;;;16.90;99.90;;;;;;5050660;28;20044;-62
2023/10/13 09:25:36;;;;;;;15.43;7.28;;;17.30;99.90;;;;;;5083397;28;20044;-61
2023/10/13 09:28:15;;;;;;;11.80;7.45;;;17.30;99.90;;;;;;5034109;28;20138;-61
2023/10/13 09:30:45;;;;;;;16.85;7.65;;;17.40;99.90;;;;;;5049745;28;20041;-61
2023/10/13 09:33:20;;;;;;;13.88;6.82;;;17.60;99.90;;;;;;5051762;28;20512;-61
2023/10/13 09:35:49;;;;;;;14.45;7.30;;;17.60;99.90;;;;;;5052049;28;20094;-61
2023/10/13 09:38:18;;;;;;;11.80;6.40;;;17.60;99.90;;;;;;5051157;28;20045;-61
2023/10/13 09:40:50;;;;;;;13.23;6.93;;;17.60;99.90;;;;;;5058652;28;20040;-62
2023/10/13 09:43:20;;;;;;;11.70;7.15;;;17.80;99.90;;;;;;5061019;28;20036;-62
2023/10/13 09:46:01;;;;;;;13.60;6.85;;;17.80;99.90;;;;;;5083049;28;20478;-64
2023/10/13 09:48:45;;;;;;;14.38;7.47;;;17.90;99.90;;;;;;5088477;28;20055;-64
2023/10/13 09:51:21;;;;;;;15.02;6.55;;;18.00;99.90;;;;;;5054422;28;20079;-64
2023/10/13 09:54:26;;;;;;;11.88;6.38;;;18.10;99.90;;;;;;5057239;28;21244;-64
2023/10/13 09:56:57;;;;;;;13.30;6.70;;;18.00;99.90;;;;;;5005620;28;20493;-64
2023/10/13 09:59:34;;;;;;;12.00;5.60;;;18.10;99.90;;;;;;5037421;28;20064;-63
2023/10/13 10:02:08;;;;;;;14.93;5.95;;;18.30;99.90;;;;;;5053559;28;20041;-62
2023/10/13 10:04:44;;;;;;;14.90;5.90;;;18.20;99.90;;;;;;5057710;28;20313;-62
2023/10/13 10:07:10;;;;;;;15.07;6.15;;;18.30;99.90;;;;;;5087043;28;20064;-62
2023/10/13 10:09:37;;;;;;;15.55;5.97;;;18.20;99.90;;;;;;5086932;28;20498;-62
2023/10/13 10:12:25;;;;;;;13.80;5.65;;;18.40;99.90;;;;;;5053663;28;20045;-62
2023/10/13 10:15:03;;;;;;;11.10;4.68;;;18.40;99.90;;;;;;5054010;28;20178;-62
2023/10/13 10:17:30;;;;;;;13.82;5.00;;;18.40;99.90;;;;;;5053888;28;20045;-62
2023/10/13 10:19:58;;;;;;;13.48;5.78;;;18.40;99.90;;;;;;5056876;28;20048;-62
2023/10/13 10:22:30;;;;;;;14.63;6.72;;;18.40;99.90;;;;;;5075305;28;20044;-62
2023/10/13 10:25:02;;;;;;;14.55;5.75;;;18.60;99.90;;;;;;5075414;28;20409;-63
2023/10/13 10:27:30;;;;;;;9.43;5.30;;;18.50;99.90;;;;;;5073039;28;20052;-62
2023/10/13 10:29:58;;;;;;;14.10;5.72;;;18.50;99.90;;;;;;5055329;28;20090;-62
2023/10/13 10:32:37;;;;;;;13.63;6.22;;;18.70;99.90;;;;;;5052593;28;20390;-63
2023/10/13 10:35:08;;;;;;;11.27;5.53;;;18.80;99.90;;;;;;5050538;28;20040;-62
2023/10/13 10:37:36;;;;;;;11.27;5.68;;;18.70;99.90;;;;;;5050769;28;20049;-62
2023/10/13 10:40:07;;;;;;;10.77;5.13;;;18.80;99.90;;;;;;5051197;28;20071;-62
2023/10/13 10:42:34;;;;;;;17.88;6.43;;;18.90;99.90;;;;;;5050364;28;20048;-62
2023/10/13 10:45:08;;;;;;;16.35;4.80;;;18.90;99.90;;;;;;5051623;28;20048;-62
2023/10/13 10:47:38;;;;;;;15.45;7.10;;;18.90;99.90;;;;;;5050144;28;20071;-62
2023/10/13 10:50:08;;;;;;;13.45;6.15;;;18.90;99.90;;;;;;5088171;28;20127;-62
2023/10/13 10:52:39;;;;;;;16.27;6.45;;;19.00;99.90;;;;;;5069824;28;20060;-62
2023/10/13 10:55:07;;;;;;;12.60;5.63;;;18.90;99.90;;;;;;5045321;28;20043;-62
2023/10/13 10:57:37;;;;;;;13.55;6.13;;;19.00;99.90;;;;;;5053362;28;20090;-62
2023/10/13 11:00:11;;;;;;;13.15;6.00;;;18.90;99.90;;;;;;5039046;28;20090;-64
2023/10/13 11:02:40;;;;;;;8.82;4.95;;;19.00;99.90;;;;;;5050102;28;20604;-64
2023/10/13 11:05:09;;;;;;;20.25;6.45;;;19.00;99.90;;;;;;5050737;28;20473;-64
2023/10/13 11:07:35;;;;;;;14.63;7.03;;;19.10;99.90;;;;;;5050173;28;20053;-64
2023/10/13 11:10:18;;;;;;;12.13;4.80;;;19.20;99.90;;;;;;5050730;28;20048;-64
2023/10/13 11:12:54;;;;;;;16.10;5.65;;;19.20;99.90;;;;;;5052972;28;20045;-64
2023/10/13 11:15:24;;;;;;;12.75;5.72;;;19.20;99.90;;;;;;5053169;28;20106;-64
2023/10/13 11:17:58;;;;;;;15.32;5.80;;;19.20;99.90;;;;;;5051341;28;20501;-64
2023/10/13 11:20:34;;;;;;;12.47;5.63;;;19.20;99.90;;;;;;5052859;28;20049;-64
2023/10/13 11:23:04;;;;;;;14.63;5.43;;;19.20;99.90;;;;;;5067805;28;20052;-64
2023/10/13 11:25:37;;;;;;;13.73;4.80;;;19.30;99.90;;;;;;5072292;28;20055;-64
2023/10/13 11:28:17;;;;;;;20.02;6.47;;;19.30;99.90;;;;;;5045981;28;20394;-64
2023/10/13 11:30:49;;;;;;;16.80;6.45;;;19.30;99.90;;;;;;5051812;28;20041;-64
2023/10/13 11:33:18;;;;;;;15.63;6.13;;;19.30;99.90;;;;;;5052890;28;20406;-64
2023/10/13 11:41:14;;;;;;;;;;;19.40;99.90;;;;;;5053288;28;20044;-64
2023/10/13 11:46:16;;;;;;;10.60;4.85;;;19.30;99.90;;;;;;5053517;28;20056;-62
2023/10/13 11:48:54;;;;;;;17.80;5.28;;;19.30;99.90;;;;;;5052360;28;20048;-63
2023/10/13 11:51:31;;;;;;;13.57;6.15;;;19.20;99.90;;;;;;5067169;28;20087;-62
2023/10/13 11:53:58;;;;;;;12.85;5.45;;;19.00;99.90;;;;;;5052405;28;20044;-62
2023/10/13 11:56:24;;;;;;;17.90;7.00;;;18.60;99.90;;;;;;5052455;28;20041;-62
2023/10/13 11:58:50;;;;;;;16.70;6.28;;;18.40;99.90;;;;;;5051705;28;20075;-62
2023/10/13 12:04:30;;;;;;;11.20;5.72;;;18.10;99.90;;;;;;5052039;28;20044;-62
2023/10/13 12:07:14;;;;;;;17.42;6.57;;;17.80;99.90;;;;;;5084089;28;20053;-64
2023/10/13 12:12:21;;;;;;;18.30;7.05;;;17.80;99.90;;;;;;5083609;28;20049;-63
2023/10/13 12:14:52;;;;;;;17.52;6.85;;;17.80;99.90;;;;;;5046883;28;20041;-63
2023/10/13 12:17:34;;;;;;;13.40;7.25;;;17.90;99.90;;;;;;5054053;28;20082;-63
2023/10/13 12:20:10;;;;;;;14.57;7.20;;;17.90;99.90;;;;;;5068354;28;20512;-64
2023/10/13 12:22:42;;;;;;;16.98;6.72;;;18.00;99.90;;;;;;5068541;28;20052;-64
2023/10/13 12:28:12;;;;;;;17.13;7.85;;;18.00;99.90;;;;;;5082174;28;20045;-66
2023/10/13 12:30:54;;;;;;;15.40;6.90;;;17.90;99.90;;;;;;5048424;28;20055;-65
2023/10/13 12:33:25;;;;;;;17.05;7.75;;;18.00;99.90;;;;;;5064702;28;20073;-67
2023/10/13 12:52:56;;;;;;;16.40;7.83;;;17.70;99.90;;;;;;5040088;28;20053;-63
2023/10/13 12:55:09;;;;;;;20.15;7.63;;;17.70;99.90;;;;;;5041048;28;20142;-62
2023/10/13 12:57:42;;;;;;;14.48;7.10;;;17.70;99.90;;;;;;5050826;28;20043;-62
2023/10/13 13:00:16;;;;;;;17.13;7.50;;;17.60;99.90;;;;;;5055428;28;20111;-62
2023/10/13 13:02:43;;;;;;;18.90;7.80;;;17.60;99.90;;;;;;5054992;28;20724;-62
2023/10/13 13:05:14;;;;;;;16.67;7.35;;;17.60;99.90;;;;;;5048152;28;20498;-63
2023/10/13 13:07:46;;;;;;;16.65;7.97;;;17.60;99.90;;;;;;5051656;28;20055;-63
2023/10/13 13:10:13;;;;;;;19.33;8.40;;;17.70;99.90;;;;;;5049341;28;20045;-63
2023/10/13 13:12:40;;;;;;;14.95;8.75;;;17.60;99.90;;;;;;5055163;28;20041;-63
2023/10/13 13:15:08;;;;;;;17.88;8.02;;;17.60;99.90;;;;;;5048061;28;20098;-64
2023/10/13 13:17:36;;;;;;;15.02;7.53;;;17.50;99.90;;;;;;5049497;28;20076;-64
2023/10/13 13:20:10;;;;;;;18.77;8.38;;;17.50;99.90;;;;;;5034286;28;20040;-64
2023/10/13 13:22:36;;;;;;;18.90;8.75;;;17.50;99.90;;;;;;5049643;28;20053;-64
2023/10/13 13:25:07;;;;;;;18.58;8.18;;;17.40;99.90;;;;;;5034607;28;20443;-63
2023/10/13 13:27:48;;;;;;;16.83;8.07;;;17.50;99.90;;;;;;5050879;28;20074;-64
2023/10/13 13:30:13;;;;;;;13.68;8.23;;;17.40;99.90;;;;;;5049737;28;20557;-63
2023/10/13 13:32:45;;;;;;;16.15;8.02;;;17.40;99.90;;;;;;5050405;28;20048;-63
2023/10/13 13:35:13;;;;;;;21.02;8.50;;;17.40;99.90;;;;;;5050244;28;20045;-64
2023/10/13 13:37:39;;;;;;;19.38;8.10;;;17.50;99.90;;;;;;5049847;28;20044;-64
2023/10/13 13:40:22;;;;;;;18.08;8.10;;;17.50;99.90;;;;;;5050701;28;20048;-64
2023/10/13 13:42:47;;;;;;;18.38;8.07;;;17.40;99.90;;;;;;5050405;28;20060;-64
2023/10/13 13:45:31;;;;;;;21.48;8.27;;;17.50;99.90;;;;;;5063721;28;20040;-64
2023/10/13 13:47:58;;;;;;;20.13;8.27;;;17.50;99.90;;;;;;5070929;28;20049;-63
2023/10/13 13:50:29;;;;;;;20.30;8.68;;;17.60;99.90;;;;;;5069595;28;20044;-63
2023/10/13 13:53:00;;;;;;;13.30;7.32;;;17.50;99.90;;;;;;5070956;28;20323;-63
2023/10/13 13:55:31;;;;;;;16.38;8.90;;;17.70;99.90;;;;;;5060967;28;20796;-63
2023/10/13 13:57:57;;;;;;;16.05;8.05;;;17.60;99.90;;;;;;5034194;28;20045;-62
2023/10/13 14:00:48;;;;;;;18.17;7.93;;;17.80;99.90;;;;;;5047701;28;20114;-64
2023/10/13 14:03:12;;;;;;;20.88;8.15;;;17.80;99.90;;;;;;5053327;28;20124;-65
2023/10/13 14:05:45;;;;;;;20.48;7.72;;;17.80;99.90;;;;;;5048917;28;20398;-68
2023/10/13 14:08:15;;;;;;;26.23;9.05;;;17.80;99.90;;;;;;5057741;28;20159;-67
2023/10/13 14:16:16;;;;;;;19.98;7.78;;;18.00;99.90;;;;;;5047625;28;20037;-65
2023/10/13 14:18:44;;;;;;;19.83;8.55;;;18.00;99.90;;;;;;5046767;28;20494;-66
2023/10/13 14:21:10;;;;;;;29.00;9.32;;;17.90;99.90;;;;;;5047075;28;20041;-66
2023/10/13 14:23:36;;;;;;;21.05;7.85;;;18.10;99.90;;;;;;5030897;28;20669;-66
2023/10/13 14:26:01;;;;;;;15.57;7.57;;;18.00;99.90;;;;;;5046683;28;20106;-66
2023/10/13 14:28:34;;;;;;;21.20;7.72;;;18.10;99.90;;;;;;5047839;28;20456;-67
2023/10/13 14:31:09;;;;;;;20.30;8.23;;;18.10;99.90;;;;;;5051526;28;20462;-67
2023/10/13 14:33:36;;;;;;;23.23;8.77;;;18.00;99.90;;;;;;5054390;28;20093;-66
2023/10/13 14:36:04;;;;;;;17.95;7.88;;;18.10;99.90;;;;;;5035467;28;20032;-67
2023/10/13 14:38:30;;;;;;;20.35;7.80;;;18.10;99.90;;;;;;5034348;28;20040;-68
2023/10/13 14:40:58;;;;;;;23.15;9.18;;;18.20;99.90;;;;;;5056787;28;20382;-69
2023/10/13 14:43:27;;;;;;;14.80;7.35;;;18.20;99.90;;;;;;5046029;28;20063;-67
2023/10/13 14:45:53;;;;;;;21.35;8.32;;;18.30;99.90;;;;;;5050692;28;20045;-66
2023/10/13 14:48:19;;;;;;;22.70;7.82;;;18.20;99.90;;;;;;5037263;28;20033;-68
2023/10/13 14:50:45;;;;;;;14.80;7.22;;;18.20;99.90;;;;;;5043321;28;20501;-67
2023/10/13 14:53:11;;;;;;;14.85;6.70;;;18.40;99.90;;;;;;5051189;28;20482;-66
2023/10/13 14:55:39;;;;;;;15.20;6.63;;;18.30;99.90;;;;;;5048552;28;20049;-67
2023/10/13 14:58:07;;;;;;;21.98;8.00;;;18.40;99.90;;;;;;5050145;28;20037;-67
2023/10/13 15:00:34;;;;;;;21.08;7.70;;;18.50;99.90;;;;;;5035068;28;20040;-67
2023/10/13 15:03:06;;;;;;;20.65;8.57;;;18.40;99.90;;;;;;5049789;28;20072;-67
2023/10/13 15:05:35;;;;;;;19.40;8.05;;;18.50;99.90;;;;;;5050588;28;20041;-69
2023/10/13 15:08:03;;;;;;;21.10;9.07;;;18.50;99.90;;;;;;5033170;28;20095;-68
2023/10/13 15:10:29;;;;;;;19.88;8.93;;;18.50;99.90;;;;;;5050119;28;20060;-67
2023/10/13 15:12:54;;;;;;;16.77;8.10;;;18.40;99.90;;;;;;5065170;28;20048;-71
2023/10/13 15:15:20;;;;;;;20.77;8.45;;;18.40;99.90;;;;;;5049183;28;20048;-67
2023/10/13 15:17:46;;;;;;;23.58;9.40;;;18.30;99.90;;;;;;5033520;28;20041;-70
2023/10/13 15:20:15;;;;;;;20.75;8.55;;;18.30;99.90;;;;;;5050760;28;20040;-67
2023/10/13 15:22:47;;;;;;;23.55;8.88;;;18.20;99.90;;;;;;5050048;28;20659;-68
2023/10/13 15:25:20;;;;;;;17.02;8.80;;;18.20;99.90;;;;;;5067766;28;20508;-70
2023/10/13 15:27:55;;;;;;;22.98;9.27;;;18.30;99.90;;;;;;5050392;28;20090;-71
2023/10/13 15:30:26;;;;;;;19.98;8.00;;;18.20;99.90;;;;;;5049667;28;20045;-70
2023/10/13 15:32:53;;;;;;;22.20;8.65;;;18.30;99.90;;;;;;5050282;28;20185;-70
2023/10/13 15:35:19;;;;;;;23.95;8.18;;;18.30;99.90;;;;;;5033244;28;20037;-71
2023/10/13 15:37:47;;;;;;;25.25;9.30;;;18.30;99.90;;;;;;5048597;28;20453;-70
2023/10/13 15:40:15;;;;;;;29.17;10.52;;;18.30;99.90;;;;;;5051388;28;20049;-70
2023/10/13 15:42:45;;;;;;;19.05;8.10;;;18.30;99.90;;;;;;5033391;28;20045;-70
2023/10/13 15:45:17;;;;;;;22.05;8.70;;;18.30;99.90;;;;;;5051747;28;20098;-71
2023/10/13 15:47:47;;;;;;;18.90;8.15;;;18.30;99.90;;;;;;5052969;28;20082;-73
2023/10/13 15:50:15;;;;;;;20.10;7.85;;;18.40;99.90;;;;;;5029121;28;20510;-70
2023/10/13 15:52:47;;;;;;;18.30;7.68;;;18.40;99.90;;;;;;5040571;28;20045;-71
2023/10/13 15:55:19;;;;;;;19.85;8.05;;;18.30;99.90;;;;;;5048410;28;20080;-73
2023/10/13 15:57:52;;;;;;;21.52;8.35;;;18.40;99.90;;;;;;5049317;28;20110;-67
2023/10/13 16:00:24;;;;;;;20.92;7.63;;;18.40;99.90;;;;;;5051600;28;20574;-67
2023/10/13 16:02:57;;;;;;;20.17;7.72;;;18.40;99.90;;;;;;5058540;28;20049;-68
2023/10/13 16:05:34;;;;;;;21.65;8.10;;;18.40;99.90;;;;;;5049419;28;20152;-70
2023/10/13 16:08:00;;;;;;;18.48;8.02;;;18.40;99.90;;;;;;5042133;28;20041;-69
2023/10/13 16:10:26;;;;;;;23.15;9.27;;;18.30;99.90;;;;;;5101716;28;20039;-69
2023/10/13 16:12:53;;;;;;;17.27;7.38;;;18.40;99.90;;;;;;5057182;28;20049;-70
2023/10/13 16:15:21;;;;;;;22.17;8.07;;;18.40;99.90;;;;;;5054044;28;20047;-69
2023/10/13 16:17:47;;;;;;;22.08;7.10;;;18.30;99.90;;;;;;5030646;28;20037;-68
2023/10/13 16:20:16;;;;;;;18.17;7.40;;;18.40;99.90;;;;;;5047923;28;20055;-68
2023/10/13 16:22:45;;;;;;;20.48;8.00;;;18.20;99.90;;;;;;5049116;28;20037;-68
2023/10/13 16:25:16;;;;;;;19.92;6.68;;;18.30;99.90;;;;;;5056584;28;20044;-68
2023/10/13 16:27:43;;;;;;;23.50;7.53;;;18.30;99.90;;;;;;5050606;28;20099;-69
2023/10/13 16:30:14;;;;;;;18.33;6.40;;;18.20;99.90;;;;;;5048503;28;20033;-69
2023/10/13 16:32:45;;;;;;;14.05;5.40;;;18.20;99.90;;;;;;5047920;28;20044;-68
2023/10/13 16:35:16;;;;;;;15.55;6.05;;;18.20;99.90;;;;;;5057923;28;20060;-69
2023/10/13 16:37:44;;;;;;;18.67;6.50;;;18.10;99.90;;;;;;5055464;28;20517;-68
2023/10/13 16:40:10;;;;;;;16.38;5.55;;;18.00;99.90;;;;;;5030729;28;20051;-68